sensor_id;sensor_type;location;lat;lon;timestamp;temperature;humidity
14739;DHT22;7461;52.440;13.540;2022-09-21T00:01:51;8.30;99.90
14739;DHT22;7461;52.440;13.540;2022-09-21T00:04:18;8.40;99.90
14739;DHT22;7461;52.440;13.540;2022-09-21T00:06:45;8.20;99.90
14739;DHT22;7461;52.440;13.540;2022-09-21T00:09:12;8.20;99.90
14739;DHT22;7461;52.440;13.540;2022-09-21T00:11:40;8.10;99.90
14739;DHT22;7461;52.440;13.540;2022-09-21T00:14:08;8.10;99.90
14739;DHT22;7461;52.440;13.540;2022-09-21T00:16:37;8.00;99.90
14739;DHT22;7461;52.440;13.540;2022-09-21T00:19:03;8.10;99.90
14739;DHT22;7461;52.440;13.540;2022-09-21T00:21:31;8.00;99.90
14739;DHT22;7461;52.440;13.540;2022-09-21T00:23:58;8.10;99.90
14739;DHT22;7461;52.440;13.540;2022-09-21T00:26:27;8.10;99.90
14739;DHT22;7461;52.440;13.540;2022-09-21T00:28:56;8.10;99.90
14739;DHT22;7461;52.440;13.540;2022-09-21T00:31:25;8.00;99.90
14739;DHT22;7461;52.440;13.540;2022-09-21T00:33:52;8.00;99.90
14739;DHT22;7461;52.440;13.540;2022-09-21T00:36:21;8.00;99.90
14739;DHT22;7461;52.440;13.540;2022-09-21T00:38:50;8.00;99.90
14739;DHT22;7461;52.440;13.540;2022-09-21T00:41:17;8.00;99.90
14739;DHT22;7461;52.440;13.540;2022-09-21T00:43:45;8.00;99.90
14739;DHT22;7461;52.440;13.540;2022-09-21T00:46:20;8.00;99.90
14739;DHT22;7461;52.440;13.540;2022-09-21T00:48:49;8.00;99.90
14739;DHT22;7461;52.440;13.540;2022-09-21T00:51:16;8.00;99.90
14739;DHT22;7461;52.440;13.540;2022-09-21T00:53:43;8.00;99.90
14739;DHT22;7461;52.440;13.540;2022-09-21T00:56:11;8.00;99.90
14739;DHT22;7461;52.440;13.540;2022-09-21T00:58:43;8.00;99.90
14739;DHT22;7461;52.440;13.540;2022-09-21T01:01:11;7.90;99.90
14739;DHT22;7461;52.440;13.540;2022-09-21T01:03:45;7.90;99.90
14739;DHT22;7461;52.440;13.540;2022-09-21T01:06:13;7.90;99.90
14739;DHT22;7461;52.440;13.540;2022-09-21T01:08:41;8.00;99.90
14739;DHT22;7461;52.440;13.540;2022-09-21T01:11:21;8.00;99.90
14739;DHT22;7461;52.440;13.540;2022-09-21T01:13:59;7.90;99.90
14739;DHT22;7461;52.440;13.540;2022-09-21T01:16:33;8.00;99.90
14739;DHT22;7461;52.440;13.540;2022-09-21T01:19:17;8.00;99.90
14739;DHT22;7461;52.440;13.540;2022-09-21T01:21:50;8.00;99.90
14739;DHT22;7461;52.440;13.540;2022-09-21T01:24:35;8.10;99.90
14739;DHT22;7461;52.440;13.540;2022-09-21T01:27:30;8.10;99.90
14739;DHT22;7461;52.440;13.540;2022-09-21T01:30:03;8.10;99.90
14739;DHT22;7461;52.440;13.540;2022-09-21T01:32:34;8.10;99.90
14739;DHT22;7461;52.440;13.540;2022-09-21T01:35:06;8.10;99.90
14739;DHT22;7461;52.440;13.540;2022-09-21T01:37:37;8.10;99.90
14739;DHT22;7461;52.440;13.540;2022-09-21T01:40:08;8.10;99.90
14739;DHT22;7461;52.440;13.540;2022-09-21T01:42:38;8.10;99.90
14739;DHT22;7461;52.440;13.540;2022-09-21T01:45:09;8.10;99.90
14739;DHT22;7461;52.440;13.540;2022-09-21T01:47:38;8.10;99.90
14739;DHT22;7461;52.440;13.540;2022-09-21T01:50:08;8.00;99.90
14739;DHT22;7461;52.440;13.540;2022-09-21T01:52:40;7.90;99.90
14739;DHT22;7461;52.440;13.540;2022-09-21T01:55:14;7.90;99.90
14739;DHT22;7461;52.440;13.540;2022-09-21T01:57:45;7.80;99.90
14739;DHT22;7461;52.440;13.540;2022-09-21T02:00:17;7.80;99.90
14739;DHT22;7461;52.440;13.540;2022-09-21T02:02:47;7.80;99.90
14739;DHT22;7461;52.440;13.540;2022-09-21T02:05:16;7.80;99.90
14739;DHT22;7461;52.440;13.540;2022-09-21T02:07:45;7.80;99.90
14739;DHT22;7461;52.440;13.540;2022-09-21T02:10:23;7.80;99.90
14739;DHT22;7461;52.440;13.540;2022-09-21T02:12:54;7.80;99.90
14739;DHT22;7461;52.440;13.540;2022-09-21T02:15:31;7.90;99.90
14739;DHT22;7461;52.440;13.540;2022-09-21T02:18:04;7.90;99.90
14739;DHT22;7461;52.440;13.540;2022-09-21T02:20:37;7.80;99.90
14739;DHT22;7461;52.440;13.540;2022-09-21T02:23:12;7.90;99.90
14739;DHT22;7461;52.440;13.540;2022-09-21T02:25:47;7.80;99.90
14739;DHT22;7461;52.440;13.540;2022-09-21T02:28:21;7.90;99.90
14739;DHT22;7461;52.440;13.540;2022-09-21T02:30:57;7.90;99.90
14739;DHT22;7461;52.440;13.540;2022-09-21T02:33:29;7.90;99.90
14739;DHT22;7461;52.440;13.540;2022-09-21T02:36:04;7.80;99.90
14739;DHT22;7461;52.440;13.540;2022-09-21T02:38:36;7.80;99.90
14739;DHT22;7461;52.440;13.540;2022-09-21T02:41:09;7.80;99.90
14739;DHT22;7461;52.440;13.540;2022-09-21T02:43:42;7.80;99.90
14739;DHT22;7461;52.440;13.540;2022-09-21T02:46:15;7.70;99.90
14739;DHT22;7461;52.440;13.540;2022-09-21T02:48:46;7.80;99.90
14739;DHT22;7461;52.440;13.540;2022-09-21T02:51:17;7.70;99.90
14739;DHT22;7461;52.440;13.540;2022-09-21T02:53:45;7.70;99.90
14739;DHT22;7461;52.440;13.540;2022-09-21T02:56:14;7.60;99.90
14739;DHT22;7461;52.440;13.540;2022-09-21T02:58:44;7.60;99.90
14739;DHT22;7461;52.440;13.540;2022-09-21T03:01:14;7.60;99.90
14739;DHT22;7461;52.440;13.540;2022-09-21T03:03:42;7.60;99.90
14739;DHT22;7461;52.440;13.540;2022-09-21T03:06:09;7.70;99.90
14739;DHT22;7461;52.440;13.540;2022-09-21T03:08:36;7.70;99.90
14739;DHT22;7461;52.440;13.540;2022-09-21T03:11:03;7.70;99.90
14739;DHT22;7461;52.440;13.540;2022-09-21T03:13:30;7.80;99.90
14739;DHT22;7461;52.440;13.540;2022-09-21T03:16:02;7.70;99.90
14739;DHT22;7461;52.440;13.540;2022-09-21T03:18:31;7.70;99.90
14739;DHT22;7461;52.440;13.540;2022-09-21T03:20:58;7.70;99.90
14739;DHT22;7461;52.440;13.540;2022-09-21T03:23:25;7.70;99.90
14739;DHT22;7461;52.440;13.540;2022-09-21T03:25:52;7.60;99.90
14739;DHT22;7461;52.440;13.540;2022-09-21T03:28:20;7.60;99.90
14739;DHT22;7461;52.440;13.540;2022-09-21T03:30:47;7.60;99.90
14739;DHT22;7461;52.440;13.540;2022-09-21T03:33:14;7.50;99.90
14739;DHT22;7461;52.440;13.540;2022-09-21T03:35:43;7.60;99.90
14739;DHT22;7461;52.440;13.540;2022-09-21T03:38:10;7.60;99.90
14739;DHT22;7461;52.440;13.540;2022-09-21T03:40:37;7.50;99.90
14739;DHT22;7461;52.440;13.540;2022-09-21T03:43:04;7.50;99.90
14739;DHT22;7461;52.440;13.540;2022-09-21T03:45:31;7.50;99.90
14739;DHT22;7461;52.440;13.540;2022-09-21T03:51:21;7.50;99.90
14739;DHT22;7461;52.440;13.540;2022-09-21T03:53:48;7.50;99.90
14739;DHT22;7461;52.440;13.540;2022-09-21T03:56:15;7.50;99.90
14739;DHT22;7461;52.440;13.540;2022-09-21T03:58:42;7.40;99.90
14739;DHT22;7461;52.440;13.540;2022-09-21T04:01:09;7.50;99.90
14739;DHT22;7461;52.440;13.540;2022-09-21T04:03:36;7.50;99.90
14739;DHT22;7461;52.440;13.540;2022-09-21T04:06:07;7.50;99.90
14739;DHT22;7461;52.440;13.540;2022-09-21T04:08:35;7.50;99.90
14739;DHT22;7461;52.440;13.540;2022-09-21T04:11:08;7.60;99.90
14739;DHT22;7461;52.440;13.540;2022-09-21T04:13:36;7.60;99.90
14739;DHT22;7461;52.440;13.540;2022-09-21T04:16:03;7.60;99.90
14739;DHT22;7461;52.440;13.540;2022-09-21T04:18:30;7.60;99.90
14739;DHT22;7461;52.440;13.540;2022-09-21T04:20:58;7.70;99.90
14739;DHT22;7461;52.440;13.540;2022-09-21T04:23:24;7.70;99.90
14739;DHT22;7461;52.440;13.540;2022-09-21T04:25:53;7.70;99.90
14739;DHT22;7461;52.440;13.540;2022-09-21T04:28:21;7.70;99.90
14739;DHT22;7461;52.440;13.540;2022-09-21T04:30:51;7.70;99.90
14739;DHT22;7461;52.440;13.540;2022-09-21T04:33:18;7.70;99.90
14739;DHT22;7461;52.440;13.540;2022-09-21T04:35:53;7.80;99.90
14739;DHT22;7461;52.440;13.540;2022-09-21T04:38:20;7.80;99.90
14739;DHT22;7461;52.440;13.540;2022-09-21T04:40:55;7.80;99.90
14739;DHT22;7461;52.440;13.540;2022-09-21T04:43:22;7.80;99.90
14739;DHT22;7461;52.440;13.540;2022-09-21T04:45:49;7.80;99.90
14739;DHT22;7461;52.440;13.540;2022-09-21T04:48:16;7.70;99.90
14739;DHT22;7461;52.440;13.540;2022-09-21T04:50:46;7.70;99.90
14739;DHT22;7461;52.440;13.540;2022-09-21T04:53:13;7.70;99.90
14739;DHT22;7461;52.440;13.540;2022-09-21T04:55:40;7.60;99.90
14739;DHT22;7461;52.440;13.540;2022-09-21T04:58:08;7.60;99.90
14739;DHT22;7461;52.440;13.540;2022-09-21T05:00:35;7.60;99.90
14739;DHT22;7461;52.440;13.540;2022-09-21T05:03:02;7.60;99.90
14739;DHT22;7461;52.440;13.540;2022-09-21T05:05:29;7.60;99.90
14739;DHT22;7461;52.440;13.540;2022-09-21T05:07:56;7.60;99.90
14739;DHT22;7461;52.440;13.540;2022-09-21T05:10:23;7.60;99.90
14739;DHT22;7461;52.440;13.540;2022-09-21T05:12:49;7.70;99.90
14739;DHT22;7461;52.440;13.540;2022-09-21T05:15:18;7.70;99.90
14739;DHT22;7461;52.440;13.540;2022-09-21T05:17:46;7.70;99.90
14739;DHT22;7461;52.440;13.540;2022-09-21T05:20:13;7.70;99.90
14739;DHT22;7461;52.440;13.540;2022-09-21T05:22:40;7.60;99.90
14739;DHT22;7461;52.440;13.540;2022-09-21T05:25:08;7.60;99.90
14739;DHT22;7461;52.440;13.540;2022-09-21T05:27:35;7.60;99.90
14739;DHT22;7461;52.440;13.540;2022-09-21T05:30:02;7.60;99.90
14739;DHT22;7461;52.440;13.540;2022-09-21T05:32:40;7.60;99.90
14739;DHT22;7461;52.440;13.540;2022-09-21T05:35:15;7.60;99.90
14739;DHT22;7461;52.440;13.540;2022-09-21T05:37:47;7.70;99.90
14739;DHT22;7461;52.440;13.540;2022-09-21T05:40:16;7.80;99.90
14739;DHT22;7461;52.440;13.540;2022-09-21T05:46:12;7.70;99.90
14739;DHT22;7461;52.440;13.540;2022-09-21T05:48:50;7.80;99.90
14739;DHT22;7461;52.440;13.540;2022-09-21T05:51:25;7.80;99.90
14739;DHT22;7461;52.440;13.540;2022-09-21T05:53:56;7.80;99.90
14739;DHT22;7461;52.440;13.540;2022-09-21T05:56:36;7.90;99.90
14739;DHT22;7461;52.440;13.540;2022-09-21T05:59:18;7.90;99.90
14739;DHT22;7461;52.440;13.540;2022-09-21T06:01:57;7.90;99.90
14739;DHT22;7461;52.440;13.540;2022-09-21T06:04:28;8.00;99.90
14739;DHT22;7461;52.440;13.540;2022-09-21T06:06:55;8.00;99.90
14739;DHT22;7461;52.440;13.540;2022-09-21T06:09:22;8.10;99.90
14739;DHT22;7461;52.440;13.540;2022-09-21T06:11:50;8.20;99.90
14739;DHT22;7461;52.440;13.540;2022-09-21T06:14:17;8.30;99.90
14739;DHT22;7461;52.440;13.540;2022-09-21T06:16:49;8.30;99.90
14739;DHT22;7461;52.440;13.540;2022-09-21T06:19:16;8.40;99.90
14739;DHT22;7461;52.440;13.540;2022-09-21T06:21:44;8.50;99.90
14739;DHT22;7461;52.440;13.540;2022-09-21T06:24:11;8.50;99.90
14739;DHT22;7461;52.440;13.540;2022-09-21T06:26:38;8.60;99.90
14739;DHT22;7461;52.440;13.540;2022-09-21T06:29:04;8.70;99.90
14739;DHT22;7461;52.440;13.540;2022-09-21T06:31:31;8.70;99.90
14739;DHT22;7461;52.440;13.540;2022-09-21T06:33:59;8.80;99.90
14739;DHT22;7461;52.440;13.540;2022-09-21T06:36:26;8.80;99.90
14739;DHT22;7461;52.440;13.540;2022-09-21T06:38:54;8.90;99.90
14739;DHT22;7461;52.440;13.540;2022-09-21T06:41:21;8.90;99.90
14739;DHT22;7461;52.440;13.540;2022-09-21T06:43:48;9.00;99.90
14739;DHT22;7461;52.440;13.540;2022-09-21T06:46:15;9.10;99.90
14739;DHT22;7461;52.440;13.540;2022-09-21T06:48:41;9.10;99.90
14739;DHT22;7461;52.440;13.540;2022-09-21T06:51:08;9.20;99.90
14739;DHT22;7461;52.440;13.540;2022-09-21T06:53:35;9.30;99.90
14739;DHT22;7461;52.440;13.540;2022-09-21T06:56:05;9.40;99.90
14739;DHT22;7461;52.440;13.540;2022-09-21T06:58:33;9.40;99.90
14739;DHT22;7461;52.440;13.540;2022-09-21T07:01:04;9.50;99.90
14739;DHT22;7461;52.440;13.540;2022-09-21T07:03:31;9.50;99.90
14739;DHT22;7461;52.440;13.540;2022-09-21T07:05:58;9.60;99.90
14739;DHT22;7461;52.440;13.540;2022-09-21T07:08:25;9.60;99.90
14739;DHT22;7461;52.440;13.540;2022-09-21T07:10:52;9.60;99.90
14739;DHT22;7461;52.440;13.540;2022-09-21T07:13:20;9.70;99.90
14739;DHT22;7461;52.440;13.540;2022-09-21T07:15:48;9.80;99.90
14739;DHT22;7461;52.440;13.540;2022-09-21T07:18:15;9.90;99.90
14739;DHT22;7461;52.440;13.540;2022-09-21T07:20:42;9.90;99.90
14739;DHT22;7461;52.440;13.540;2022-09-21T07:23:09;10.00;99.90
14739;DHT22;7461;52.440;13.540;2022-09-21T07:25:36;10.10;99.90
14739;DHT22;7461;52.440;13.540;2022-09-21T07:28:04;10.20;99.90
14739;DHT22;7461;52.440;13.540;2022-09-21T07:30:32;10.30;99.90
14739;DHT22;7461;52.440;13.540;2022-09-21T07:32:59;10.40;99.90
14739;DHT22;7461;52.440;13.540;2022-09-21T07:35:26;10.40;99.90
14739;DHT22;7461;52.440;13.540;2022-09-21T07:37:52;10.50;99.90
14739;DHT22;7461;52.440;13.540;2022-09-21T07:40:21;10.60;99.90
14739;DHT22;7461;52.440;13.540;2022-09-21T07:42:48;10.60;99.90
14739;DHT22;7461;52.440;13.540;2022-09-21T07:45:15;10.70;99.90
14739;DHT22;7461;52.440;13.540;2022-09-21T07:47:44;10.80;99.90
14739;DHT22;7461;52.440;13.540;2022-09-21T07:50:11;10.90;99.90
14739;DHT22;7461;52.440;13.540;2022-09-21T07:52:37;11.00;99.90
14739;DHT22;7461;52.440;13.540;2022-09-21T07:55:05;11.00;99.90
14739;DHT22;7461;52.440;13.540;2022-09-21T07:57:32;11.10;99.90
14739;DHT22;7461;52.440;13.540;2022-09-21T08:00:17;11.20;99.90
14739;DHT22;7461;52.440;13.540;2022-09-21T08:02:45;11.20;99.90
14739;DHT22;7461;52.440;13.540;2022-09-21T08:05:12;11.30;99.90
14739;DHT22;7461;52.440;13.540;2022-09-21T08:07:39;11.30;99.90
14739;DHT22;7461;52.440;13.540;2022-09-21T08:10:07;11.40;99.90
14739;DHT22;7461;52.440;13.540;2022-09-21T08:12:34;11.50;99.90
14739;DHT22;7461;52.440;13.540;2022-09-21T08:15:01;11.60;99.90
14739;DHT22;7461;52.440;13.540;2022-09-21T08:17:28;11.60;99.90
14739;DHT22;7461;52.440;13.540;2022-09-21T08:19:56;11.70;99.90
14739;DHT22;7461;52.440;13.540;2022-09-21T08:22:23;11.80;99.90
14739;DHT22;7461;52.440;13.540;2022-09-21T08:24:50;11.90;99.90
14739;DHT22;7461;52.440;13.540;2022-09-21T08:27:17;11.90;99.90
14739;DHT22;7461;52.440;13.540;2022-09-21T08:29:45;12.00;99.90
14739;DHT22;7461;52.440;13.540;2022-09-21T08:32:12;12.00;99.90
14739;DHT22;7461;52.440;13.540;2022-09-21T08:34:39;12.10;99.90
14739;DHT22;7461;52.440;13.540;2022-09-21T08:37:07;12.10;99.90
14739;DHT22;7461;52.440;13.540;2022-09-21T08:39:34;12.20;99.90
14739;DHT22;7461;52.440;13.540;2022-09-21T08:42:26;12.30;99.90
14739;DHT22;7461;52.440;13.540;2022-09-21T08:44:59;12.40;99.90
14739;DHT22;7461;52.440;13.540;2022-09-21T08:47:34;12.40;99.90
14739;DHT22;7461;52.440;13.540;2022-09-21T08:50:22;12.50;99.90
14739;DHT22;7461;52.440;13.540;2022-09-21T08:52:56;12.50;99.90
14739;DHT22;7461;52.440;13.540;2022-09-21T08:55:24;12.50;99.90
14739;DHT22;7461;52.440;13.540;2022-09-21T08:57:52;12.60;99.90
14739;DHT22;7461;52.440;13.540;2022-09-21T09:00:19;12.70;99.90
14739;DHT22;7461;52.440;13.540;2022-09-21T09:03:17;12.70;99.90
14739;DHT22;7461;52.440;13.540;2022-09-21T09:05:51;12.80;99.90
14739;DHT22;7461;52.440;13.540;2022-09-21T09:08:42;12.90;99.90
14739;DHT22;7461;52.440;13.540;2022-09-21T09:11:18;13.00;99.90
14739;DHT22;7461;52.440;13.540;2022-09-21T09:14:05;13.10;99.90
14739;DHT22;7461;52.440;13.540;2022-09-21T09:16:42;13.10;99.90
14739;DHT22;7461;52.440;13.540;2022-09-21T09:19:19;13.20;99.90
14739;DHT22;7461;52.440;13.540;2022-09-21T09:21:47;13.30;99.90
14739;DHT22;7461;52.440;13.540;2022-09-21T09:24:20;13.30;99.90
14739;DHT22;7461;52.440;13.540;2022-09-21T09:26:58;13.40;99.90
14739;DHT22;7461;52.440;13.540;2022-09-21T09:29:30;13.40;99.90
14739;DHT22;7461;52.440;13.540;2022-09-21T09:32:00;13.40;99.90
14739;DHT22;7461;52.440;13.540;2022-09-21T09:34:30;13.50;99.90
14739;DHT22;7461;52.440;13.540;2022-09-21T09:37:00;13.60;99.90
14739;DHT22;7461;52.440;13.540;2022-09-21T09:39:32;13.70;99.90
14739;DHT22;7461;52.440;13.540;2022-09-21T09:42:16;13.80;99.90
14739;DHT22;7461;52.440;13.540;2022-09-21T09:45:06;14.00;99.90
14739;DHT22;7461;52.440;13.540;2022-09-21T09:47:45;14.00;99.90
14739;DHT22;7461;52.440;13.540;2022-09-21T09:50:18;14.10;99.90
14739;DHT22;7461;52.440;13.540;2022-09-21T09:52:47;14.20;99.90
14739;DHT22;7461;52.440;13.540;2022-09-21T09:55:19;14.20;99.90
14739;DHT22;7461;52.440;13.540;2022-09-21T09:57:47;14.50;99.90
14739;DHT22;7461;52.440;13.540;2022-09-21T10:00:17;14.70;99.90
14739;DHT22;7461;52.440;13.540;2022-09-21T10:02:47;14.80;99.90
14739;DHT22;7461;52.440;13.540;2022-09-21T10:05:21;14.80;99.90
14739;DHT22;7461;52.440;13.540;2022-09-21T10:07:48;14.90;99.90
14739;DHT22;7461;52.440;13.540;2022-09-21T10:10:28;15.00;99.90
14739;DHT22;7461;52.440;13.540;2022-09-21T10:13:01;15.00;99.90
14739;DHT22;7461;52.440;13.540;2022-09-21T10:15:28;15.00;99.90
14739;DHT22;7461;52.440;13.540;2022-09-21T10:18:05;15.10;99.90
14739;DHT22;7461;52.440;13.540;2022-09-21T10:20:32;15.10;99.90
14739;DHT22;7461;52.440;13.540;2022-09-21T10:22:59;15.20;99.90
14739;DHT22;7461;52.440;13.540;2022-09-21T10:25:29;15.30;99.90
14739;DHT22;7461;52.440;13.540;2022-09-21T10:27:56;15.40;99.90
14739;DHT22;7461;52.440;13.540;2022-09-21T10:30:34;15.40;99.90
14739;DHT22;7461;52.440;13.540;2022-09-21T10:33:06;15.70;99.90
14739;DHT22;7461;52.440;13.540;2022-09-21T10:35:48;15.60;99.90
14739;DHT22;7461;52.440;13.540;2022-09-21T10:38:17;15.90;99.90
14739;DHT22;7461;52.440;13.540;2022-09-21T10:40:46;16.10;99.90
14739;DHT22;7461;52.440;13.540;2022-09-21T10:43:23;16.00;99.90
14739;DHT22;7461;52.440;13.540;2022-09-21T10:45:53;16.20;99.90
14739;DHT22;7461;52.440;13.540;2022-09-21T10:48:23;16.10;99.90
14739;DHT22;7461;52.440;13.540;2022-09-21T10:50:51;15.90;99.90
14739;DHT22;7461;52.440;13.540;2022-09-21T10:53:22;15.80;99.90
14739;DHT22;7461;52.440;13.540;2022-09-21T10:55:55;15.70;99.90
14739;DHT22;7461;52.440;13.540;2022-09-21T10:58:23;15.80;99.90
14739;DHT22;7461;52.440;13.540;2022-09-21T11:00:55;15.80;99.90
14739;DHT22;7461;52.440;13.540;2022-09-21T11:03:37;15.90;99.90
14739;DHT22;7461;52.440;13.540;2022-09-21T11:06:12;15.80;99.90
14739;DHT22;7461;52.440;13.540;2022-09-21T11:08:45;15.70;99.90
14739;DHT22;7461;52.440;13.540;2022-09-21T11:11:29;15.50;99.90
14739;DHT22;7461;52.440;13.540;2022-09-21T11:14:06;15.50;99.90
14739;DHT22;7461;52.440;13.540;2022-09-21T11:16:39;15.50;99.90
14739;DHT22;7461;52.440;13.540;2022-09-21T11:19:16;15.60;99.90
14739;DHT22;7461;52.440;13.540;2022-09-21T11:21:50;15.60;99.90
14739;DHT22;7461;52.440;13.540;2022-09-21T11:24:23;15.50;99.90
14739;DHT22;7461;52.440;13.540;2022-09-21T11:26:57;15.60;99.90
14739;DHT22;7461;52.440;13.540;2022-09-21T11:29:32;15.60;99.90
14739;DHT22;7461;52.440;13.540;2022-09-21T11:32:25;15.70;99.90
14739;DHT22;7461;52.440;13.540;2022-09-21T11:35:17;15.80;99.90
14739;DHT22;7461;52.440;13.540;2022-09-21T11:38:03;15.90;99.90
14739;DHT22;7461;52.440;13.540;2022-09-21T11:40:48;15.90;99.90
14739;DHT22;7461;52.440;13.540;2022-09-21T11:43:33;15.90;99.90
14739;DHT22;7461;52.440;13.540;2022-09-21T11:46:12;15.90;99.90
14739;DHT22;7461;52.440;13.540;2022-09-21T11:48:53;15.70;99.90
14739;DHT22;7461;52.440;13.540;2022-09-21T11:51:36;15.80;99.90
14739;DHT22;7461;52.440;13.540;2022-09-21T11:54:26;15.90;99.90
14739;DHT22;7461;52.440;13.540;2022-09-21T11:57:03;16.00;99.90
14739;DHT22;7461;52.440;13.540;2022-09-21T11:59:56;16.00;99.90
14739;DHT22;7461;52.440;13.540;2022-09-21T12:02:42;16.00;99.90
14739;DHT22;7461;52.440;13.540;2022-09-21T12:05:22;16.20;99.90
14739;DHT22;7461;52.440;13.540;2022-09-21T12:08:05;16.30;99.90
14739;DHT22;7461;52.440;13.540;2022-09-21T12:10:45;16.50;99.90
14739;DHT22;7461;52.440;13.540;2022-09-21T12:13:24;16.60;99.90
14739;DHT22;7461;52.440;13.540;2022-09-21T12:16:02;16.50;99.90
14739;DHT22;7461;52.440;13.540;2022-09-21T12:18:35;16.40;99.90
14739;DHT22;7461;52.440;13.540;2022-09-21T12:21:09;16.30;99.90
14739;DHT22;7461;52.440;13.540;2022-09-21T12:23:41;16.20;99.90
14739;DHT22;7461;52.440;13.540;2022-09-21T12:26:13;16.10;99.90
14739;DHT22;7461;52.440;13.540;2022-09-21T12:28:43;16.00;99.90
14739;DHT22;7461;52.440;13.540;2022-09-21T12:31:17;15.90;99.90
14739;DHT22;7461;52.440;13.540;2022-09-21T12:33:48;15.90;99.90
14739;DHT22;7461;52.440;13.540;2022-09-21T12:36:19;15.80;99.90
14739;DHT22;7461;52.440;13.540;2022-09-21T12:38:52;15.80;99.90
14739;DHT22;7461;52.440;13.540;2022-09-21T12:41:25;15.90;99.90
14739;DHT22;7461;52.440;13.540;2022-09-21T12:43:59;16.10;99.90
14739;DHT22;7461;52.440;13.540;2022-09-21T12:46:31;16.20;99.90
14739;DHT22;7461;52.440;13.540;2022-09-21T12:49:01;16.20;99.90
14739;DHT22;7461;52.440;13.540;2022-09-21T12:51:33;16.30;99.90
14739;DHT22;7461;52.440;13.540;2022-09-21T12:54:06;16.40;99.90
14739;DHT22;7461;52.440;13.540;2022-09-21T12:56:42;16.60;99.90
14739;DHT22;7461;52.440;13.540;2022-09-21T12:59:21;16.60;99.90
14739;DHT22;7461;52.440;13.540;2022-09-21T13:01:56;16.70;99.90
14739;DHT22;7461;52.440;13.540;2022-09-21T13:04:34;16.80;99.90
14739;DHT22;7461;52.440;13.540;2022-09-21T13:10:19;17.00;99.90
14739;DHT22;7461;52.440;13.540;2022-09-21T13:12:51;16.90;99.90
14739;DHT22;7461;52.440;13.540;2022-09-21T13:15:23;16.80;99.90
14739;DHT22;7461;52.440;13.540;2022-09-21T13:18:00;16.70;99.90
14739;DHT22;7461;52.440;13.540;2022-09-21T13:20:33;16.50;99.90
14739;DHT22;7461;52.440;13.540;2022-09-21T13:23:01;16.30;99.90
14739;DHT22;7461;52.440;13.540;2022-09-21T13:25:29;16.20;99.90
14739;DHT22;7461;52.440;13.540;2022-09-21T13:28:05;16.10;99.90
14739;DHT22;7461;52.440;13.540;2022-09-21T13:30:36;16.00;99.90
14739;DHT22;7461;52.440;13.540;2022-09-21T13:33:29;16.00;99.90
14739;DHT22;7461;52.440;13.540;2022-09-21T13:36:03;16.00;99.90
14739;DHT22;7461;52.440;13.540;2022-09-21T13:38:32;16.20;99.90
14739;DHT22;7461;52.440;13.540;2022-09-21T13:41:03;16.30;99.90
14739;DHT22;7461;52.440;13.540;2022-09-21T13:43:44;16.50;99.90
14739;DHT22;7461;52.440;13.540;2022-09-21T13:46:47;16.60;99.90
14739;DHT22;7461;52.440;13.540;2022-09-21T13:49:21;16.60;99.90
14739;DHT22;7461;52.440;13.540;2022-09-21T13:51:51;16.60;99.90
14739;DHT22;7461;52.440;13.540;2022-09-21T13:54:22;16.60;99.90
14739;DHT22;7461;52.440;13.540;2022-09-21T13:57:14;16.60;99.90
14739;DHT22;7461;52.440;13.540;2022-09-21T13:59:43;16.60;99.90
14739;DHT22;7461;52.440;13.540;2022-09-21T14:02:27;16.50;99.90
14739;DHT22;7461;52.440;13.540;2022-09-21T14:05:02;16.50;99.90
14739;DHT22;7461;52.440;13.540;2022-09-21T14:07:31;16.60;99.90
14739;DHT22;7461;52.440;13.540;2022-09-21T14:10:02;16.50;99.90
14739;DHT22;7461;52.440;13.540;2022-09-21T14:12:33;16.50;99.90
14739;DHT22;7461;52.440;13.540;2022-09-21T14:15:37;16.50;99.90
14739;DHT22;7461;52.440;13.540;2022-09-21T14:18:20;16.50;99.90
14739;DHT22;7461;52.440;13.540;2022-09-21T14:21:11;16.50;99.90
14739;DHT22;7461;52.440;13.540;2022-09-21T14:26:59;16.70;99.90
14739;DHT22;7461;52.440;13.540;2022-09-21T14:29:36;16.70;99.90
14739;DHT22;7461;52.440;13.540;2022-09-21T14:32:10;16.70;99.90
14739;DHT22;7461;52.440;13.540;2022-09-21T14:34:40;16.70;99.90
14739;DHT22;7461;52.440;13.540;2022-09-21T14:37:20;16.70;99.90
14739;DHT22;7461;52.440;13.540;2022-09-21T14:39:52;16.80;99.90
14739;DHT22;7461;52.440;13.540;2022-09-21T14:42:22;16.90;99.90
14739;DHT22;7461;52.440;13.540;2022-09-21T14:44:55;16.90;99.90
14739;DHT22;7461;52.440;13.540;2022-09-21T14:47:45;16.90;99.90
14739;DHT22;7461;52.440;13.540;2022-09-21T14:50:30;16.80;99.90
14739;DHT22;7461;52.440;13.540;2022-09-21T14:53:32;16.80;99.90
14739;DHT22;7461;52.440;13.540;2022-09-21T14:56:23;16.70;99.90
14739;DHT22;7461;52.440;13.540;2022-09-21T15:02:14;16.60;99.90
14739;DHT22;7461;52.440;13.540;2022-09-21T15:04:50;16.50;99.90
14739;DHT22;7461;52.440;13.540;2022-09-21T15:07:35;16.50;99.90
14739;DHT22;7461;52.440;13.540;2022-09-21T15:10:25;16.40;99.90
14739;DHT22;7461;52.440;13.540;2022-09-21T15:13:21;16.30;99.90
14739;DHT22;7461;52.440;13.540;2022-09-21T15:16:07;16.20;99.90
14739;DHT22;7461;52.440;13.540;2022-09-21T15:18:40;16.10;99.90
14739;DHT22;7461;52.440;13.540;2022-09-21T15:21:19;16.10;99.90
14739;DHT22;7461;52.440;13.540;2022-09-21T15:23:47;16.00;99.90
14739;DHT22;7461;52.440;13.540;2022-09-21T15:26:21;16.00;99.90
14739;DHT22;7461;52.440;13.540;2022-09-21T15:28:53;16.00;99.90
14739;DHT22;7461;52.440;13.540;2022-09-21T15:31:20;16.00;99.90
14739;DHT22;7461;52.440;13.540;2022-09-21T15:33:48;15.80;99.90
14739;DHT22;7461;52.440;13.540;2022-09-21T15:36:22;15.70;99.90
14739;DHT22;7461;52.440;13.540;2022-09-21T15:38:50;15.70;99.90
14739;DHT22;7461;52.440;13.540;2022-09-21T15:41:37;15.70;99.90
14739;DHT22;7461;52.440;13.540;2022-09-21T15:44:11;15.70;99.90
14739;DHT22;7461;52.440;13.540;2022-09-21T15:46:39;15.60;99.90
14739;DHT22;7461;52.440;13.540;2022-09-21T15:49:10;15.50;99.90
14739;DHT22;7461;52.440;13.540;2022-09-21T15:51:39;15.50;99.90
14739;DHT22;7461;52.440;13.540;2022-09-21T15:54:25;15.50;99.90
14739;DHT22;7461;52.440;13.540;2022-09-21T15:56:57;15.50;99.90
14739;DHT22;7461;52.440;13.540;2022-09-21T15:59:24;15.40;99.90
14739;DHT22;7461;52.440;13.540;2022-09-21T16:01:53;15.40;99.90
14739;DHT22;7461;52.440;13.540;2022-09-21T16:04:22;15.30;99.90
14739;DHT22;7461;52.440;13.540;2022-09-21T16:06:58;15.10;99.90
14739;DHT22;7461;52.440;13.540;2022-09-21T16:09:38;15.10;99.90
14739;DHT22;7461;52.440;13.540;2022-09-21T16:12:31;15.10;99.90
14739;DHT22;7461;52.440;13.540;2022-09-21T16:15:04;15.10;99.90
14739;DHT22;7461;52.440;13.540;2022-09-21T16:17:35;15.00;99.90
14739;DHT22;7461;52.440;13.540;2022-09-21T16:22:39;15.00;99.90
14739;DHT22;7461;52.440;13.540;2022-09-21T16:25:22;14.90;99.90
14739;DHT22;7461;52.440;13.540;2022-09-21T16:27:53;14.80;99.90
14739;DHT22;7461;52.440;13.540;2022-09-21T16:30:42;14.80;99.90